Time;durP1;ratioP1;P1;durP2;ratioP2;P2;SDS_P1;SDS_P2;PMS_P1;PMS_P2;Temp;Humidity;BMP_temperature;BMP_pressure;BME280_temperature;BME280_humidity;BME280_pressure;Samples;Min_cycle;Max_cycle;Signal;HPM_P1;HPM_P2
2022/06/29 00:02:17;;;;;;;0.73;0.73;;;21.50;99.90;;;;;;5060513;28;20306;-66
2022/06/29 00:04:44;;;;;;;0.77;0.77;;;21.50;99.90;;;;;;5062936;28;20237;-64
2022/06/29 00:07:11;;;;;;;0.70;0.70;;;21.50;99.90;;;;;;5052514;28;20702;-65
2022/06/29 00:09:38;;;;;;;1.42;1.00;;;21.50;99.90;;;;;;5057673;28;20726;-65
2022/06/29 00:12:06;;;;;;;0.80;0.80;;;21.40;99.90;;;;;;5054500;28;20204;-65
2022/06/29 00:14:41;;;;;;;0.65;0.65;;;21.40;99.90;;;;;;5055670;28;20196;-66
2022/06/29 00:17:09;;;;;;;0.80;0.80;;;21.40;99.90;;;;;;5050880;28;20203;-65
2022/06/29 00:19:37;;;;;;;0.80;0.80;;;21.50;99.90;;;;;;5051048;28;20235;-66
2022/06/29 00:22:04;;;;;;;0.70;0.70;;;21.50;99.90;;;;;;5043130;28;20207;-65
2022/06/29 00:24:31;;;;;;;0.70;0.70;;;21.40;99.90;;;;;;5046917;28;20310;-65
2022/06/29 00:26:59;;;;;;;0.70;0.70;;;21.40;99.90;;;;;;5052852;28;20204;-65
2022/06/29 00:29:26;;;;;;;0.80;0.80;;;21.50;99.90;;;;;;5054392;28;20238;-64
2022/06/29 00:31:54;;;;;;;0.70;0.70;;;21.50;99.90;;;;;;5055152;28;20238;-66
2022/06/29 00:34:21;;;;;;;0.80;0.80;;;21.50;99.90;;;;;;5055532;28;20279;-64
2022/06/29 00:36:48;;;;;;;0.70;0.70;;;21.60;99.90;;;;;;5053999;28;20211;-64
2022/06/29 00:39:15;;;;;;;0.60;0.60;;;21.50;99.90;;;;;;5052063;28;20230;-65
2022/06/29 00:41:44;;;;;;;0.80;0.80;;;21.40;99.90;;;;;;5051544;28;20287;-65
2022/06/29 00:44:14;;;;;;;0.70;0.70;;;21.40;99.90;;;;;;5047554;28;20291;-65
2022/06/29 00:46:48;;;;;;;0.80;0.80;;;21.30;99.90;;;;;;5049983;28;20247;-65
2022/06/29 00:49:17;;;;;;;1.02;1.02;;;21.30;99.90;;;;;;5053663;28;20223;-65
2022/06/29 00:51:46;;;;;;;0.80;0.80;;;21.20;99.90;;;;;;5053425;28;20342;-64
2022/06/29 00:54:17;;;;;;;0.63;0.63;;;21.20;99.90;;;;;;5043555;28;20258;-65
2022/06/29 00:56:44;;;;;;;0.82;0.82;;;21.10;99.90;;;;;;5074084;28;20278;-64
2022/06/29 00:59:14;;;;;;;0.85;0.85;;;21.00;99.90;;;;;;5058391;28;20234;-65
2022/06/29 01:01:42;;;;;;;0.70;0.70;;;20.90;99.90;;;;;;5067695;28;20272;-66
2022/06/29 01:04:11;;;;;;;0.80;0.80;;;20.90;99.90;;;;;;5065601;28;20200;-64
2022/06/29 01:06:39;;;;;;;0.90;0.90;;;21.00;99.90;;;;;;5061048;28;20287;-63
2022/06/29 01:09:07;;;;;;;0.80;0.80;;;21.00;99.90;;;;;;5054139;28;20259;-68
2022/06/29 01:11:34;;;;;;;0.70;0.70;;;21.00;99.90;;;;;;5061358;28;20207;-64
2022/06/29 01:14:02;;;;;;;0.97;0.97;;;20.90;99.90;;;;;;5053466;28;20199;-65
2022/06/29 01:16:29;;;;;;;0.77;0.77;;;20.80;99.90;;;;;;5052878;28;20200;-64
2022/06/29 01:18:56;;;;;;;0.83;0.83;;;20.80;99.90;;;;;;5052559;28;20251;-64
2022/06/29 01:21:25;;;;;;;0.80;0.80;;;20.70;99.90;;;;;;5064172;28;20287;-66
2022/06/29 01:23:53;;;;;;;0.83;0.83;;;20.70;99.90;;;;;;5053879;28;20636;-67
2022/06/29 01:26:20;;;;;;;0.77;0.77;;;20.60;99.90;;;;;;5053586;28;20220;-65
2022/06/29 01:28:47;;;;;;;0.80;0.80;;;20.60;99.90;;;;;;5059110;28;20227;-64
2022/06/29 01:31:15;;;;;;;0.80;0.80;;;20.50;99.90;;;;;;5073429;22;20281;-64
2022/06/29 01:33:41;;;;;;;0.80;0.80;;;20.60;99.90;;;;;;5053918;28;20210;-65
2022/06/29 01:36:08;;;;;;;0.80;0.80;;;20.60;99.90;;;;;;5053234;28;20223;-65
2022/06/29 01:38:37;;;;;;;0.90;0.90;;;20.60;99.90;;;;;;5060393;28;20687;-64
2022/06/29 01:41:06;;;;;;;0.80;0.80;;;20.60;99.90;;;;;;5043361;28;20231;-64
2022/06/29 01:43:33;;;;;;;1.03;0.70;;;20.60;99.90;;;;;;5059222;28;20204;-65
2022/06/29 01:46:00;;;;;;;0.70;0.70;;;20.60;99.90;;;;;;5062848;28;20223;-65
2022/06/29 01:48:27;;;;;;;0.80;0.80;;;20.70;99.90;;;;;;5062185;28;20569;-64
2022/06/29 01:50:54;;;;;;;1.00;1.00;;;20.60;99.90;;;;;;5066210;28;20216;-65
2022/06/29 01:53:21;;;;;;;0.80;0.80;;;20.50;99.90;;;;;;5066481;28;20211;-64
2022/06/29 01:55:48;;;;;;;0.98;0.98;;;20.50;99.90;;;;;;5071265;28;20230;-67
2022/06/29 01:58:17;;;;;;;0.80;0.80;;;20.40;99.90;;;;;;5070309;28;20238;-65
2022/06/29 02:00:44;;;;;;;0.80;0.80;;;20.40;99.90;;;;;;5062176;28;20252;-65
2022/06/29 02:03:11;;;;;;;0.85;0.80;;;20.50;99.90;;;;;;5060547;28;20203;-63
2022/06/29 02:05:38;;;;;;;0.80;0.80;;;20.50;99.90;;;;;;5054365;28;20220;-65
2022/06/29 02:08:05;;;;;;;0.80;0.80;;;20.50;99.90;;;;;;5054240;28;20200;-66
2022/06/29 02:10:32;;;;;;;1.05;0.90;;;20.50;99.90;;;;;;5053827;28;20686;-66
2022/06/29 02:12:59;;;;;;;0.80;0.80;;;20.40;99.90;;;;;;5053800;28;20258;-67
2022/06/29 02:15:28;;;;;;;0.90;0.90;;;20.40;99.90;;;;;;5052786;28;20192;-65
2022/06/29 02:17:55;;;;;;;0.82;0.82;;;20.30;99.90;;;;;;5053228;28;20204;-65
2022/06/29 02:20:22;;;;;;;1.13;1.00;;;20.30;99.90;;;;;;5053370;28;20228;-67
2022/06/29 02:22:48;;;;;;;0.80;0.80;;;20.20;99.90;;;;;;5061945;28;20719;-64
2022/06/29 02:25:15;;;;;;;0.80;0.80;;;20.20;99.90;;;;;;5060270;28;20698;-66
2022/06/29 02:27:45;;;;;;;0.70;0.70;;;20.20;99.90;;;;;;5061336;28;20210;-66
2022/06/29 02:30:13;;;;;;;0.90;0.90;;;20.10;99.90;;;;;;5053891;28;20234;-67
2022/06/29 02:35:25;;;;;;;1.75;0.90;;;20.30;99.90;;;;;;5061946;28;20199;-68
2022/06/29 02:37:52;;;;;;;0.90;0.90;;;20.30;99.90;;;;;;5064701;28;20235;-66
2022/06/29 02:40:19;;;;;;;1.00;1.00;;;20.30;99.90;;;;;;5074834;28;20231;-66
2022/06/29 02:42:46;;;;;;;0.90;0.90;;;20.40;99.90;;;;;;5063575;28;20230;-66
2022/06/29 02:45:13;;;;;;;1.03;0.93;;;20.50;99.90;;;;;;5059494;28;20335;-66
2022/06/29 02:47:41;;;;;;;1.25;1.00;;;20.60;99.90;;;;;;5054552;28;20203;-67
2022/06/29 02:50:09;;;;;;;1.00;1.00;;;20.60;99.90;;;;;;5053743;28;20303;-66
2022/06/29 02:52:36;;;;;;;0.80;0.80;;;20.50;99.90;;;;;;5052445;28;20652;-66
2022/06/29 02:55:03;;;;;;;0.80;0.80;;;20.40;99.90;;;;;;5047321;28;20234;-67
2022/06/29 02:57:30;;;;;;;0.85;0.85;;;20.40;99.90;;;;;;5064293;28;20208;-64
2022/06/29 02:59:57;;;;;;;1.07;0.90;;;20.40;99.90;;;;;;5052660;28;20302;-66
2022/06/29 03:02:24;;;;;;;0.90;0.90;;;20.40;99.90;;;;;;5054748;28;20288;-67
2022/06/29 03:04:52;;;;;;;1.00;1.00;;;20.30;99.90;;;;;;5056505;28;20207;-66
2022/06/29 03:07:19;;;;;;;0.77;0.77;;;20.20;99.90;;;;;;5050781;28;20231;-66
2022/06/29 03:09:45;;;;;;;0.93;0.93;;;20.20;99.90;;;;;;5052508;28;20203;-65
2022/06/29 03:12:14;;;;;;;0.80;0.80;;;20.10;99.90;;;;;;5052244;28;20206;-65
2022/06/29 03:14:40;;;;;;;0.97;0.97;;;20.10;99.90;;;;;;5051429;28;20780;-66
2022/06/29 03:17:07;;;;;;;1.00;1.00;;;20.20;99.90;;;;;;5051646;28;20343;-67
2022/06/29 03:19:34;;;;;;;0.73;0.73;;;20.10;99.90;;;;;;5051427;28;20705;-65
2022/06/29 03:22:03;;;;;;;0.90;0.90;;;20.20;99.90;;;;;;5051629;28;20764;-67
2022/06/29 03:24:29;;;;;;;0.90;0.90;;;20.30;99.90;;;;;;5052155;28;20218;-67
2022/06/29 03:26:56;;;;;;;0.83;0.83;;;20.30;99.90;;;;;;5051469;28;20253;-65
2022/06/29 03:29:23;;;;;;;0.90;0.90;;;20.20;99.90;;;;;;5052327;28;20286;-67
2022/06/29 03:31:50;;;;;;;0.90;0.90;;;20.10;99.90;;;;;;5060728;28;20290;-65
2022/06/29 03:34:17;;;;;;;1.00;1.00;;;20.00;99.90;;;;;;5077447;28;20222;-65
2022/06/29 03:36:44;;;;;;;1.00;1.00;;;19.90;99.90;;;;;;5062773;28;20286;-66
2022/06/29 03:39:13;;;;;;;0.90;0.90;;;19.90;99.90;;;;;;5051922;28;20204;-66
2022/06/29 03:41:40;;;;;;;1.00;1.00;;;20.00;99.90;;;;;;5051864;28;20310;-67
2022/06/29 03:44:07;;;;;;;0.87;0.87;;;20.00;99.90;;;;;;5063842;28;20283;-65
2022/06/29 03:46:34;;;;;;;0.90;0.90;;;20.10;99.90;;;;;;5053479;28;20241;-66
2022/06/29 03:49:00;;;;;;;0.97;0.97;;;20.00;99.90;;;;;;5052027;28;20930;-67
2022/06/29 03:51:27;;;;;;;0.90;0.90;;;19.90;99.90;;;;;;5053534;28;20311;-67
2022/06/29 03:53:54;;;;;;;0.82;0.82;;;20.00;99.90;;;;;;5052753;28;20232;-67
2022/06/29 03:56:22;;;;;;;0.90;0.90;;;20.00;99.90;;;;;;5059702;28;20234;-64
2022/06/29 03:58:49;;;;;;;0.90;0.90;;;20.00;99.90;;;;;;5054186;28;20294;-66
2022/06/29 04:01:16;;;;;;;0.90;0.90;;;20.00;99.90;;;;;;5060799;28;20304;-67
2022/06/29 04:03:43;;;;;;;0.90;0.90;;;20.10;99.90;;;;;;5065679;28;20297;-65
2022/06/29 04:06:10;;;;;;;1.03;1.03;;;20.10;99.90;;;;;;5058097;28;20224;-66
2022/06/29 04:08:38;;;;;;;0.90;0.90;;;20.10;99.90;;;;;;5065082;28;20207;-65
2022/06/29 04:11:48;;;;;;;1.00;1.00;;;20.00;99.90;;;;;;5056484;28;20231;-66
2022/06/29 04:13:53;;;;;;;0.90;0.90;;;20.00;99.90;;;;;;5059622;28;20213;-65
2022/06/29 04:16:20;;;;;;;0.90;0.90;;;19.90;99.90;;;;;;5055458;28;20289;-67
2022/06/29 04:18:47;;;;;;;0.90;0.90;;;19.80;99.90;;;;;;5061686;28;20866;-66
2022/06/29 04:21:14;;;;;;;1.00;1.00;;;19.80;99.90;;;;;;5071279;28;20248;-66
2022/06/29 04:23:41;;;;;;;0.80;0.80;;;19.70;99.90;;;;;;5062277;28;20203;-66
2022/06/29 04:26:08;;;;;;;0.90;0.90;;;19.80;99.90;;;;;;5070761;28;20247;-66
2022/06/29 04:28:36;;;;;;;0.90;0.90;;;19.90;99.90;;;;;;5051397;28;20211;-67
2022/06/29 04:31:04;;;;;;;0.97;0.97;;;19.90;99.90;;;;;;5063248;28;20224;-68
2022/06/29 04:33:31;;;;;;;1.03;1.03;;;20.00;99.90;;;;;;5061614;28;20200;-67
2022/06/29 04:35:58;;;;;;;1.00;1.00;;;20.00;99.90;;;;;;5074285;28;20208;-65
2022/06/29 04:38:25;;;;;;;1.00;1.00;;;20.10;99.90;;;;;;5069954;28;20200;-67
2022/06/29 04:40:51;;;;;;;0.90;0.90;;;20.20;99.90;;;;;;5055465;28;20227;-67
2022/06/29 04:43:18;;;;;;;1.00;1.00;;;20.30;99.90;;;;;;5055575;28;20208;-66
2022/06/29 04:48:31;;;;;;;1.83;1.10;;;20.40;99.90;;;;;;5056747;28;20306;-65
2022/06/29 04:50:58;;;;;;;0.90;0.90;;;20.30;99.90;;;;;;5056331;28;20327;-66
2022/06/29 04:53:25;;;;;;;0.70;0.70;;;20.40;99.90;;;;;;5056692;28;20196;-65
2022/06/29 04:55:52;;;;;;;0.80;0.80;;;20.50;99.90;;;;;;5059906;28;20208;-66
2022/06/29 04:58:19;;;;;;;0.88;0.88;;;20.50;99.90;;;;;;5048886;28;20653;-66
2022/06/29 05:00:45;;;;;;;0.90;0.90;;;20.50;99.90;;;;;;5055306;28;20310;-66
2022/06/29 05:03:13;;;;;;;0.97;0.97;;;20.60;99.90;;;;;;5054682;28;20291;-66
2022/06/29 05:05:41;;;;;;;1.00;1.00;;;20.70;99.90;;;;;;5055251;28;20295;-65
2022/06/29 05:08:08;;;;;;;0.80;0.80;;;20.70;99.90;;;;;;5055920;28;20204;-65
2022/06/29 05:10:35;;;;;;;0.93;0.93;;;20.80;99.90;;;;;;5063637;28;20233;-64
2022/06/29 05:13:02;;;;;;;1.00;1.00;;;20.80;99.90;;;;;;5058192;28;20295;-66
2022/06/29 05:15:29;;;;;;;1.00;1.00;;;20.90;99.90;;;;;;5058048;28;20199;-66
2022/06/29 05:17:56;;;;;;;1.48;0.95;;;21.00;99.90;;;;;;5059883;28;20215;-65
2022/06/29 05:20:23;;;;;;;1.60;1.03;;;20.90;99.90;;;;;;5064124;28;20219;-65
2022/06/29 05:22:52;;;;;;;0.83;0.83;;;21.00;99.90;;;;;;5055504;28;20241;-65
2022/06/29 05:25:19;;;;;;;1.00;1.00;;;21.10;99.90;;;;;;5063078;28;20223;-65
2022/06/29 05:27:46;;;;;;;1.10;1.10;;;21.20;99.90;;;;;;5059912;28;20228;-66
2022/06/29 05:30:14;;;;;;;1.00;1.00;;;21.20;99.90;;;;;;5067646;28;20259;-65
2022/06/29 05:32:41;;;;;;;0.80;0.80;;;21.30;99.90;;;;;;5060273;28;20294;-65
2022/06/29 05:35:09;;;;;;;0.93;0.93;;;21.30;99.90;;;;;;5053719;28;20200;-65
2022/06/29 05:37:37;;;;;;;0.90;0.90;;;21.40;99.90;;;;;;5054465;28;20287;-65
2022/06/29 05:40:06;;;;;;;0.90;0.90;;;21.40;99.90;;;;;;5048078;28;20207;-66
2022/06/29 05:42:39;;;;;;;1.00;1.00;;;21.60;99.90;;;;;;5066998;28;20204;-65
2022/06/29 05:45:07;;;;;;;1.10;0.97;;;21.60;99.90;;;;;;5072435;28;20752;-64
2022/06/29 05:47:34;;;;;;;1.20;1.10;;;21.70;99.90;;;;;;5068785;28;20275;-65
2022/06/29 05:50:01;;;;;;;0.73;0.73;;;21.70;99.90;;;;;;5066641;28;20298;-68
2022/06/29 05:52:28;;;;;;;1.00;1.00;;;21.70;99.90;;;;;;5062995;28;20196;-65
2022/06/29 05:54:57;;;;;;;1.00;1.00;;;21.70;99.90;;;;;;5054095;28;20240;-67
2022/06/29 05:57:26;;;;;;;0.90;0.90;;;21.70;99.90;;;;;;5058572;28;20206;-67
2022/06/29 05:59:52;;;;;;;1.00;1.00;;;21.70;99.90;;;;;;5057214;28;20198;-64
2022/06/29 06:02:19;;;;;;;0.73;0.73;;;21.70;99.90;;;;;;5052786;28;20303;-65
2022/06/29 06:04:46;;;;;;;0.90;0.90;;;21.80;99.90;;;;;;5052831;28;20291;-65
2022/06/29 06:07:13;;;;;;;1.30;1.20;;;21.80;99.90;;;;;;5052011;28;20679;-66
2022/06/29 06:09:40;;;;;;;0.90;0.90;;;21.80;99.90;;;;;;5058987;28;20208;-66
2022/06/29 06:12:08;;;;;;;1.50;1.00;;;21.80;99.90;;;;;;5052571;28;20314;-65
2022/06/29 06:14:36;;;;;;;1.10;1.10;;;21.90;99.90;;;;;;5052261;28;20754;-62
2022/06/29 06:17:03;;;;;;;1.60;0.97;;;21.90;99.90;;;;;;5051587;28;20256;-65
2022/06/29 06:19:30;;;;;;;1.37;1.00;;;22.00;99.90;;;;;;5053069;28;20948;-67
2022/06/29 06:21:57;;;;;;;1.60;1.10;;;22.10;99.90;;;;;;5050976;28;20608;-64
2022/06/29 06:24:24;;;;;;;0.90;0.90;;;22.30;99.90;;;;;;5052647;28;20203;-65
2022/06/29 06:26:51;;;;;;;0.82;0.82;;;22.40;99.90;;;;;;5051597;28;20212;-67
2022/06/29 06:29:18;;;;;;;0.80;0.80;;;22.50;99.90;;;;;;5057287;28;20226;-68
2022/06/29 06:31:46;;;;;;;0.80;0.80;;;22.60;99.90;;;;;;5053439;28;20620;-67
2022/06/29 06:34:13;;;;;;;0.83;0.83;;;22.70;99.90;;;;;;5056333;28;20215;-70
2022/06/29 06:36:40;;;;;;;0.80;0.80;;;22.80;99.90;;;;;;5053966;28;20227;-67
2022/06/29 06:39:07;;;;;;;0.90;0.90;;;22.90;99.90;;;;;;5052113;28;20196;-69
2022/06/29 06:41:33;;;;;;;0.80;0.80;;;22.90;99.90;;;;;;5065715;28;20221;-69
2022/06/29 06:44:01;;;;;;;0.90;0.90;;;23.00;99.90;;;;;;5052320;28;20268;-68
2022/06/29 06:46:29;;;;;;;0.93;0.93;;;23.00;99.90;;;;;;5055514;28;20229;-69
2022/06/29 06:48:57;;;;;;;0.90;0.90;;;23.10;99.90;;;;;;5061132;28;20208;-69
2022/06/29 06:51:24;;;;;;;0.90;0.90;;;23.20;99.90;;;;;;5055736;28;20306;-70
2022/06/29 06:53:51;;;;;;;0.90;0.90;;;23.20;99.90;;;;;;5065404;28;20203;-70
2022/06/29 06:56:19;;;;;;;0.90;0.90;;;23.20;99.90;;;;;;5062606;28;20198;-66
2022/06/29 06:58:46;;;;;;;1.43;0.80;;;23.20;99.90;;;;;;5041630;28;21002;-70
2022/06/29 07:01:13;;;;;;;0.80;0.80;;;23.00;99.90;;;;;;5050800;28;20242;-69
2022/06/29 07:03:40;;;;;;;0.80;0.80;;;23.30;99.90;;;;;;5047724;28;20231;-69
2022/06/29 07:06:10;;;;;;;0.80;0.80;;;23.60;99.90;;;;;;5059816;28;20676;-69
2022/06/29 07:08:39;;;;;;;0.95;0.95;;;24.00;99.90;;;;;;5050344;28;20277;-69
2022/06/29 07:11:07;;;;;;;0.80;0.80;;;24.10;99.90;;;;;;5050642;28;20731;-70
2022/06/29 07:13:35;;;;;;;0.80;0.80;;;24.00;99.90;;;;;;5051834;28;20291;-69
2022/06/29 07:16:03;;;;;;;0.80;0.80;;;24.00;99.90;;;;;;5051402;28;20231;-70
2022/06/29 07:18:30;;;;;;;1.10;1.10;;;23.90;99.90;;;;;;5050982;28;20239;-70
2022/06/29 07:20:57;;;;;;;1.10;0.90;;;24.00;99.90;;;;;;5051724;28;20234;-70
2022/06/29 07:23:27;;;;;;;0.75;0.75;;;24.10;99.90;;;;;;5052400;28;20196;-69
2022/06/29 07:25:54;;;;;;;1.00;1.00;;;24.10;99.90;;;;;;5051432;28;20562;-70
2022/06/29 07:28:21;;;;;;;0.80;0.80;;;24.10;99.90;;;;;;5051164;28;20224;-69
2022/06/29 07:30:48;;;;;;;0.90;0.90;;;24.00;99.90;;;;;;5051463;28;20235;-71
2022/06/29 07:33:15;;;;;;;0.80;0.80;;;24.00;99.90;;;;;;5053271;28;20208;-69
2022/06/29 07:35:42;;;;;;;0.83;0.83;;;23.90;99.90;;;;;;5055512;28;20239;-69
2022/06/29 07:38:10;;;;;;;0.88;0.88;;;24.00;99.90;;;;;;5055063;28;20238;-69
2022/06/29 07:40:38;;;;;;;0.80;0.80;;;24.00;99.90;;;;;;5055677;28;20330;-68
2022/06/29 07:43:05;;;;;;;0.80;0.80;;;24.10;99.90;;;;;;5047650;28;20282;-70
2022/06/29 07:45:32;;;;;;;0.80;0.80;;;24.10;99.90;;;;;;5056445;28;20235;-68
2022/06/29 07:47:59;;;;;;;0.70;0.70;;;24.20;99.90;;;;;;5068759;22;20251;-65
2022/06/29 07:50:26;;;;;;;1.08;1.00;;;24.20;99.90;;;;;;5038812;28;20283;-65
2022/06/29 07:52:53;;;;;;;0.85;0.85;;;24.30;99.90;;;;;;5037961;28;20224;-66
2022/06/29 07:55:20;;;;;;;0.90;0.90;;;24.20;99.90;;;;;;5039514;28;20208;-64
2022/06/29 07:57:50;;;;;;;0.90;0.90;;;24.10;99.90;;;;;;5036909;28;20702;-65
2022/06/29 08:00:17;;;;;;;0.90;0.90;;;24.10;99.90;;;;;;5038043;28;20295;-66
2022/06/29 08:02:44;;;;;;;0.70;0.70;;;24.10;99.90;;;;;;5037478;28;20287;-64
2022/06/29 08:05:11;;;;;;;0.80;0.80;;;24.20;99.90;;;;;;5037655;28;20197;-64
2022/06/29 08:07:38;;;;;;;1.08;0.80;;;24.40;99.90;;;;;;5036961;28;20318;-67
2022/06/29 08:10:07;;;;;;;0.90;0.80;;;24.50;99.90;;;;;;5041819;28;20284;-68
2022/06/29 08:12:35;;;;;;;0.95;0.88;;;24.50;99.90;;;;;;5041303;28;20207;-66
2022/06/29 08:15:04;;;;;;;0.63;0.63;;;24.50;99.90;;;;;;5040225;28;20205;-66
2022/06/29 08:17:32;;;;;;;0.80;0.80;;;24.70;99.90;;;;;;5040630;28;20220;-66
2022/06/29 08:19:58;;;;;;;0.70;0.70;;;24.80;99.90;;;;;;5037316;28;20340;-65
2022/06/29 08:22:25;;;;;;;0.80;0.80;;;24.90;99.90;;;;;;5035665;28;20636;-66
2022/06/29 08:24:52;;;;;;;0.70;0.70;;;25.00;99.90;;;;;;5035427;28;20249;-63
2022/06/29 08:27:22;;;;;;;0.75;0.75;;;25.00;99.90;;;;;;5034141;28;20790;-67
2022/06/29 08:29:49;;;;;;;0.70;0.70;;;25.00;99.90;;;;;;5035238;28;20208;-66
2022/06/29 08:32:17;;;;;;;0.70;0.70;;;25.10;99.90;;;;;;5034553;28;20208;-65
2022/06/29 08:34:45;;;;;;;0.82;0.82;;;25.00;99.90;;;;;;5035337;28;20205;-65
2022/06/29 08:37:12;;;;;;;3.80;0.90;;;24.80;99.90;;;;;;5033888;28;20647;-66
2022/06/29 08:39:39;;;;;;;0.70;0.70;;;24.80;99.90;;;;;;5034568;28;20975;-63
2022/06/29 08:42:06;;;;;;;0.90;0.90;;;24.70;99.90;;;;;;5034796;28;20201;-64
2022/06/29 08:44:34;;;;;;;0.70;0.70;;;24.70;99.90;;;;;;5033438;28;20201;-66
2022/06/29 08:47:02;;;;;;;0.73;0.73;;;24.70;99.90;;;;;;5033358;28;20220;-65
2022/06/29 08:49:31;;;;;;;0.90;0.90;;;24.70;99.90;;;;;;5034939;28;20208;-64
2022/06/29 08:51:59;;;;;;;0.70;0.70;;;24.80;99.90;;;;;;5034631;28;20288;-66
2022/06/29 08:54:27;;;;;;;0.75;0.75;;;24.90;99.90;;;;;;5034780;28;20215;-65
2022/06/29 08:56:55;;;;;;;1.13;0.90;;;25.00;99.90;;;;;;5033593;28;20247;-65
2022/06/29 08:59:23;;;;;;;0.90;0.90;;;25.00;99.90;;;;;;5034242;28;20303;-65
2022/06/29 09:01:51;;;;;;;0.70;0.70;;;24.80;99.90;;;;;;5034698;28;20689;-64
2022/06/29 09:04:18;;;;;;;0.85;0.85;;;24.70;99.90;;;;;;5034368;28;20211;-63
2022/06/29 09:06:52;;;;;;;0.90;0.90;;;24.60;99.90;;;;;;5034036;28;20307;-65
2022/06/29 09:09:19;;;;;;;0.70;0.70;;;24.60;99.90;;;;;;5034168;28;20299;-65
2022/06/29 09:11:47;;;;;;;0.80;0.80;;;24.80;99.90;;;;;;5033986;28;20223;-64
2022/06/29 09:14:15;;;;;;;0.95;0.70;;;24.90;99.90;;;;;;5034421;28;20197;-64
2022/06/29 09:16:52;;;;;;;0.80;0.80;;;25.00;99.90;;;;;;5033806;28;20271;-64
2022/06/29 09:19:20;;;;;;;0.75;0.75;;;25.00;99.90;;;;;;5034482;28;20654;-64
2022/06/29 09:21:50;;;;;;;0.73;0.73;;;25.00;99.90;;;;;;5034945;28;20208;-67
2022/06/29 09:24:17;;;;;;;0.63;0.63;;;25.10;99.90;;;;;;5034709;28;20209;-65
2022/06/29 09:26:48;;;;;;;0.60;0.60;;;25.20;99.90;;;;;;5033969;28;20291;-65
2022/06/29 09:29:20;;;;;;;0.85;0.85;;;25.40;99.90;;;;;;5033945;28;20726;-66
2022/06/29 09:32:08;;;;;;;0.70;0.70;;;25.60;99.90;;;;;;5032218;28;20215;-65
2022/06/29 09:34:37;;;;;;;0.73;0.73;;;25.90;99.90;;;;;;5029602;28;20207;-65
2022/06/29 09:37:09;;;;;;;0.70;0.70;;;26.10;99.90;;;;;;5032496;28;20842;-66
2022/06/29 09:39:37;;;;;;;1.05;1.00;;;26.10;99.90;;;;;;5034088;28;20197;-67
2022/06/29 09:42:05;;;;;;;0.73;0.73;;;26.10;99.90;;;;;;5033629;28;20200;-64
2022/06/29 09:44:32;;;;;;;0.88;0.88;;;26.20;99.90;;;;;;5033086;28;20777;-66
2022/06/29 09:46:59;;;;;;;0.70;0.70;;;26.30;99.90;;;;;;5032265;28;20203;-66
2022/06/29 09:49:29;;;;;;;0.82;0.82;;;26.30;99.90;;;;;;5032895;28;20620;-66
2022/06/29 09:51:57;;;;;;;0.70;0.70;;;26.60;99.90;;;;;;5033667;28;20215;-65
2022/06/29 09:54:30;;;;;;;0.70;0.70;;;26.80;99.90;;;;;;5033357;28;20213;-65
2022/06/29 09:56:59;;;;;;;0.63;0.63;;;26.90;99.90;;;;;;5032626;28;20316;-64
2022/06/29 10:02:35;;;;;;;0.95;0.90;;;27.10;99.90;;;;;;5035406;28;20208;-64
2022/06/29 10:05:05;;;;;;;1.00;0.90;;;27.00;99.90;;;;;;5038549;28;20209;-66
2022/06/29 10:07:33;;;;;;;1.00;0.88;;;26.90;99.90;;;;;;5031965;28;20323;-65
2022/06/29 10:10:03;;;;;;;0.90;0.90;;;27.30;99.90;;;;;;5032853;28;20711;-65
2022/06/29 10:15:42;;;;;;;0.82;0.82;;;27.50;99.90;;;;;;5028641;28;20203;-66
2022/06/29 10:18:19;;;;;;;0.70;0.70;;;27.40;99.90;;;;;;5033127;28;20220;-66
2022/06/29 10:20:48;;;;;;;0.80;0.80;;;27.10;99.90;;;;;;5034397;28;20311;-66
2022/06/29 10:23:50;;;;;;;0.77;0.77;;;26.90;99.90;;;;;;5033652;28;20200;-66
2022/06/29 10:26:44;;;;;;;0.90;0.90;;;26.80;99.90;;;;;;5027354;28;20205;-67
2022/06/29 10:29:34;;;;;;;0.73;0.73;;;27.00;99.90;;;;;;5030170;28;20254;-65
2022/06/29 10:32:17;;;;;;;0.70;0.70;;;26.90;99.90;;;;;;5031249;28;20653;-64
2022/06/29 10:37:30;;;;;;;0.60;0.60;;;26.80;99.90;;;;;;5029069;28;20235;-65
2022/06/29 10:40:01;;;;;;;0.60;0.60;;;26.80;99.90;;;;;;5026772;28;20228;-65
2022/06/29 10:45:26;;;;;;;0.90;0.90;;;27.00;99.90;;;;;;5029345;28;20701;-65
2022/06/29 10:48:24;;;;;;;0.77;0.70;;;27.10;99.90;;;;;;5031336;28;20263;-66
2022/06/29 10:50:52;;;;;;;1.10;0.70;;;27.10;99.90;;;;;;5032304;28;20208;-64
2022/06/29 10:53:20;;;;;;;0.70;0.68;;;27.20;99.90;;;;;;5029505;28;20231;-65
2022/06/29 10:55:57;;;;;;;0.77;0.77;;;27.20;99.90;;;;;;5028712;28;20219;-66
2022/06/29 10:58:25;;;;;;;0.90;0.90;;;27.30;99.90;;;;;;5027490;28;20222;-65
2022/06/29 11:00:54;;;;;;;0.80;0.80;;;27.40;99.90;;;;;;5030449;28;20212;-65
2022/06/29 11:03:25;;;;;;;0.88;0.88;;;27.40;99.90;;;;;;5031405;28;20204;-65
2022/06/29 11:16:58;;;;;;;0.90;0.90;;;28.40;99.90;;;;;;5030764;28;20211;-66
2022/06/29 11:19:31;;;;;;;0.80;0.80;;;28.40;99.90;;;;;;5032938;28;20224;-66
2022/06/29 11:22:08;;;;;;;0.70;0.70;;;28.30;99.90;;;;;;5034082;28;20632;-66
2022/06/29 11:24:57;;;;;;;0.80;0.80;;;28.20;99.90;;;;;;5028428;28;20235;-64
2022/06/29 11:27:38;;;;;;;0.80;0.80;;;28.20;99.90;;;;;;5028287;28;20222;-67
2022/06/29 11:30:11;;;;;;;0.80;0.80;;;28.30;99.90;;;;;;5035119;28;20287;-66
2022/06/29 11:32:40;;;;;;;0.90;0.90;;;28.20;99.90;;;;;;5035135;28;20243;-66
2022/06/29 11:35:08;;;;;;;1.08;1.08;;;27.90;99.90;;;;;;5030670;28;20208;-66
2022/06/29 11:37:35;;;;;;;0.80;0.80;;;27.80;99.90;;;;;;5033902;28;20228;-66
2022/06/29 11:40:02;;;;;;;0.85;0.80;;;28.10;99.90;;;;;;5035146;28;20255;-66
2022/06/29 11:45:21;;;;;;;1.05;0.90;;;28.60;99.90;;;;;;5035996;28;20208;-66
2022/06/29 11:47:52;;;;;;;1.05;0.70;;;28.70;99.90;;;;;;5035950;28;20220;-65
2022/06/29 11:50:19;;;;;;;0.82;0.70;;;28.90;99.90;;;;;;5039742;28;20200;-65
2022/06/29 11:52:47;;;;;;;0.80;0.80;;;28.80;99.90;;;;;;5035493;28;20232;-65
2022/06/29 11:55:14;;;;;;;0.90;0.90;;;28.40;99.90;;;;;;5038715;28;20212;-65
2022/06/29 11:57:41;;;;;;;0.80;0.80;;;28.10;99.90;;;;;;5033849;28;20297;-66
2022/06/29 12:00:11;;;;;;;0.88;0.88;;;28.10;99.90;;;;;;5033455;28;20211;-66
2022/06/29 12:02:40;;;;;;;0.90;0.90;;;28.20;99.90;;;;;;5033190;28;20211;-65
2022/06/29 12:05:07;;;;;;;0.70;0.70;;;28.30;99.90;;;;;;5031797;28;20311;-66
2022/06/29 12:07:35;;;;;;;0.77;0.73;;;28.50;99.90;;;;;;5036773;28;20661;-66
2022/06/29 12:10:02;;;;;;;0.90;0.90;;;28.60;99.90;;;;;;5036066;28;20543;-66
2022/06/29 12:12:29;;;;;;;0.98;0.90;;;28.60;99.90;;;;;;5040808;28;20220;-66
2022/06/29 12:14:56;;;;;;;1.05;0.95;;;28.60;99.90;;;;;;5039926;28;20229;-65
2022/06/29 12:17:23;;;;;;;1.27;0.82;;;28.70;99.90;;;;;;5034054;28;20205;-66
2022/06/29 12:19:51;;;;;;;1.67;1.10;;;28.70;99.90;;;;;;5028151;28;20197;-65
2022/06/29 12:22:19;;;;;;;0.93;0.88;;;28.80;99.90;;;;;;5036518;28;20201;-66
2022/06/29 12:24:46;;;;;;;0.82;0.82;;;29.00;99.90;;;;;;5034286;28;20205;-67
2022/06/29 12:27:13;;;;;;;0.80;0.80;;;29.00;99.90;;;;;;5029904;28;20292;-67
2022/06/29 12:29:40;;;;;;;0.90;0.90;;;29.00;99.90;;;;;;5030842;28;20773;-66
2022/06/29 12:32:07;;;;;;;0.70;0.70;;;29.00;99.90;;;;;;5031593;28;20208;-66
2022/06/29 12:34:34;;;;;;;0.90;0.90;;;28.80;99.90;;;;;;5033427;28;20284;-66
2022/06/29 12:37:03;;;;;;;0.65;0.65;;;28.80;99.90;;;;;;5032089;28;20296;-66
2022/06/29 12:39:31;;;;;;;0.60;0.60;;;28.80;99.90;;;;;;5033337;28;20278;-65
2022/06/29 12:41:58;;;;;;;0.70;0.70;;;29.00;99.90;;;;;;5028893;28;20596;-66
2022/06/29 12:44:25;;;;;;;0.82;0.80;;;29.10;99.90;;;;;;5030808;28;20209;-65
2022/06/29 12:46:53;;;;;;;0.80;0.80;;;29.40;99.90;;;;;;5030066;28;20244;-67
2022/06/29 12:49:20;;;;;;;0.68;0.68;;;29.50;99.90;;;;;;5028584;28;20233;-64
2022/06/29 12:51:47;;;;;;;0.80;0.80;;;29.70;99.90;;;;;;5031047;28;20209;-65
2022/06/29 12:54:17;;;;;;;0.80;0.80;;;29.80;99.90;;;;;;5028828;28;20575;-67
2022/06/29 12:56:44;;;;;;;0.68;0.60;;;29.90;99.90;;;;;;5029736;28;20205;-66
2022/06/29 12:59:11;;;;;;;2.50;0.90;;;29.80;99.90;;;;;;5031961;28;21033;-66
2022/06/29 13:01:38;;;;;;;1.10;1.00;;;29.90;99.90;;;;;;5029133;28;20213;-65
2022/06/29 13:04:05;;;;;;;1.27;0.90;;;29.90;99.90;;;;;;5031427;28;20648;-67
2022/06/29 13:06:32;;;;;;;0.77;0.77;;;29.70;99.90;;;;;;5029360;28;20201;-64
2022/06/29 13:08:59;;;;;;;1.63;1.00;;;29.50;99.90;;;;;;5028567;28;20757;-65
2022/06/29 13:11:27;;;;;;;0.80;0.80;;;29.30;99.90;;;;;;5030802;28;20291;-66
2022/06/29 13:13:54;;;;;;;1.00;0.80;;;29.20;99.90;;;;;;5029849;28;20215;-66
2022/06/29 13:16:21;;;;;;;0.82;0.82;;;29.30;99.90;;;;;;5031188;28;20687;-65
2022/06/29 13:18:48;;;;;;;0.68;0.68;;;29.60;99.90;;;;;;5029541;28;20869;-65
2022/06/29 13:21:14;;;;;;;0.85;0.82;;;29.60;99.90;;;;;;5032538;28;20240;-67
2022/06/29 13:23:41;;;;;;;0.85;0.85;;;29.70;99.90;;;;;;5028150;28;20215;-67
2022/06/29 13:26:08;;;;;;;1.00;0.90;;;29.80;99.90;;;;;;5026300;28;20208;-67